sensor_id;sensor_type;location;lat;lon;timestamp;temperature;humidity
11908;DHT22;6014;47.690;9.130;2023-08-17T00:00:34;19.40;99.90
11908;DHT22;6014;47.690;9.130;2023-08-17T00:03:03;19.40;99.90
11908;DHT22;6014;47.690;9.130;2023-08-17T00:05:47;19.40;99.90
11908;DHT22;6014;47.690;9.130;2023-08-17T00:08:15;19.30;99.90
11908;DHT22;6014;47.690;9.130;2023-08-17T00:10:44;19.30;99.90
11908;DHT22;6014;47.690;9.130;2023-08-17T00:13:12;19.30;99.90
11908;DHT22;6014;47.690;9.130;2023-08-17T00:15:41;19.30;99.90
11908;DHT22;6014;47.690;9.130;2023-08-17T00:18:11;19.30;99.90
11908;DHT22;6014;47.690;9.130;2023-08-17T00:20:47;19.20;99.90
11908;DHT22;6014;47.690;9.130;2023-08-17T00:23:15;19.20;99.90
11908;DHT22;6014;47.690;9.130;2023-08-17T00:25:43;19.10;99.90
11908;DHT22;6014;47.690;9.130;2023-08-17T00:28:11;19.10;99.90
11908;DHT22;6014;47.690;9.130;2023-08-17T00:30:39;19.10;99.90
11908;DHT22;6014;47.690;9.130;2023-08-17T00:33:07;19.10;99.90
11908;DHT22;6014;47.690;9.130;2023-08-17T00:35:35;19.00;99.90
11908;DHT22;6014;47.690;9.130;2023-08-17T00:38:05;19.00;99.90
11908;DHT22;6014;47.690;9.130;2023-08-17T00:40:33;19.00;99.90
11908;DHT22;6014;47.690;9.130;2023-08-17T00:43:01;18.90;99.90
11908;DHT22;6014;47.690;9.130;2023-08-17T00:45:30;18.90;99.90
11908;DHT22;6014;47.690;9.130;2023-08-17T00:47:58;18.80;99.90
11908;DHT22;6014;47.690;9.130;2023-08-17T00:50:28;18.80;99.90
11908;DHT22;6014;47.690;9.130;2023-08-17T00:52:57;18.70;99.90
11908;DHT22;6014;47.690;9.130;2023-08-17T00:55:28;18.70;99.90
11908;DHT22;6014;47.690;9.130;2023-08-17T00:57:57;18.80;99.90
11908;DHT22;6014;47.690;9.130;2023-08-17T01:00:26;18.70;99.90
11908;DHT22;6014;47.690;9.130;2023-08-17T01:02:55;18.70;99.90
11908;DHT22;6014;47.690;9.130;2023-08-17T01:05:26;18.70;99.90
11908;DHT22;6014;47.690;9.130;2023-08-17T01:07:56;18.70;99.90
11908;DHT22;6014;47.690;9.130;2023-08-17T01:10:27;18.80;99.90
11908;DHT22;6014;47.690;9.130;2023-08-17T01:13:05;18.70;99.90
11908;DHT22;6014;47.690;9.130;2023-08-17T01:15:39;18.60;99.90
11908;DHT22;6014;47.690;9.130;2023-08-17T01:18:21;18.60;99.90
11908;DHT22;6014;47.690;9.130;2023-08-17T01:20:50;18.50;99.90
11908;DHT22;6014;47.690;9.130;2023-08-17T01:23:21;18.40;99.90
11908;DHT22;6014;47.690;9.130;2023-08-17T01:25:56;18.50;99.90
11908;DHT22;6014;47.690;9.130;2023-08-17T01:28:25;18.50;99.90
11908;DHT22;6014;47.690;9.130;2023-08-17T01:30:57;18.50;99.90
11908;DHT22;6014;47.690;9.130;2023-08-17T01:33:29;18.40;99.90
11908;DHT22;6014;47.690;9.130;2023-08-17T01:36:05;18.40;99.90
11908;DHT22;6014;47.690;9.130;2023-08-17T01:38:37;18.40;99.90
11908;DHT22;6014;47.690;9.130;2023-08-17T01:41:07;18.30;99.90
11908;DHT22;6014;47.690;9.130;2023-08-17T01:43:42;18.30;99.90
11908;DHT22;6014;47.690;9.130;2023-08-17T01:46:14;18.30;99.90
11908;DHT22;6014;47.690;9.130;2023-08-17T01:48:42;18.30;99.90
11908;DHT22;6014;47.690;9.130;2023-08-17T01:51:11;18.30;99.90
11908;DHT22;6014;47.690;9.130;2023-08-17T01:53:41;18.30;99.90
11908;DHT22;6014;47.690;9.130;2023-08-17T01:56:09;18.30;99.90
11908;DHT22;6014;47.690;9.130;2023-08-17T01:58:37;18.30;99.90
11908;DHT22;6014;47.690;9.130;2023-08-17T02:01:05;18.30;99.90
11908;DHT22;6014;47.690;9.130;2023-08-17T02:03:33;18.20;99.90
11908;DHT22;6014;47.690;9.130;2023-08-17T02:06:02;18.20;99.90
11908;DHT22;6014;47.690;9.130;2023-08-17T02:08:30;18.20;99.90
11908;DHT22;6014;47.690;9.130;2023-08-17T02:10:59;18.10;99.90
11908;DHT22;6014;47.690;9.130;2023-08-17T02:13:34;18.10;99.90
11908;DHT22;6014;47.690;9.130;2023-08-17T02:16:04;18.10;99.90
11908;DHT22;6014;47.690;9.130;2023-08-17T02:18:32;18.10;99.90
11908;DHT22;6014;47.690;9.130;2023-08-17T02:21:01;18.10;99.90
11908;DHT22;6014;47.690;9.130;2023-08-17T02:23:29;18.10;99.90
11908;DHT22;6014;47.690;9.130;2023-08-17T02:25:59;18.10;99.90
11908;DHT22;6014;47.690;9.130;2023-08-17T02:28:27;18.20;99.90
11908;DHT22;6014;47.690;9.130;2023-08-17T02:30:55;18.10;99.90
11908;DHT22;6014;47.690;9.130;2023-08-17T02:33:23;18.00;99.90
11908;DHT22;6014;47.690;9.130;2023-08-17T02:35:52;18.10;99.90
11908;DHT22;6014;47.690;9.130;2023-08-17T02:38:20;18.10;99.90
11908;DHT22;6014;47.690;9.130;2023-08-17T02:40:48;18.10;99.90
11908;DHT22;6014;47.690;9.130;2023-08-17T02:43:18;18.00;99.90
11908;DHT22;6014;47.690;9.130;2023-08-17T02:45:46;18.00;99.90
11908;DHT22;6014;47.690;9.130;2023-08-17T02:48:14;18.00;99.90
11908;DHT22;6014;47.690;9.130;2023-08-17T02:50:42;18.00;99.90
11908;DHT22;6014;47.690;9.130;2023-08-17T02:53:10;18.00;99.90
11908;DHT22;6014;47.690;9.130;2023-08-17T02:55:38;17.90;99.90
11908;DHT22;6014;47.690;9.130;2023-08-17T02:58:07;18.00;99.90
11908;DHT22;6014;47.690;9.130;2023-08-17T03:00:37;17.90;99.90
11908;DHT22;6014;47.690;9.130;2023-08-17T03:03:05;17.90;99.90
11908;DHT22;6014;47.690;9.130;2023-08-17T03:05:33;18.00;99.90
11908;DHT22;6014;47.690;9.130;2023-08-17T03:08:01;17.90;99.90
11908;DHT22;6014;47.690;9.130;2023-08-17T03:10:30;17.80;99.90
11908;DHT22;6014;47.690;9.130;2023-08-17T03:12:58;17.80;99.90
11908;DHT22;6014;47.690;9.130;2023-08-17T03:15:26;17.80;99.90
11908;DHT22;6014;47.690;9.130;2023-08-17T03:17:56;17.80;99.90
11908;DHT22;6014;47.690;9.130;2023-08-17T03:20:24;17.90;99.90
11908;DHT22;6014;47.690;9.130;2023-08-17T03:22:52;17.90;99.90
11908;DHT22;6014;47.690;9.130;2023-08-17T03:25:20;18.00;99.90
11908;DHT22;6014;47.690;9.130;2023-08-17T03:27:48;18.00;99.90
11908;DHT22;6014;47.690;9.130;2023-08-17T03:30:16;18.00;99.90
11908;DHT22;6014;47.690;9.130;2023-08-17T03:32:44;18.00;99.90
11908;DHT22;6014;47.690;9.130;2023-08-17T03:35:13;17.90;99.90
11908;DHT22;6014;47.690;9.130;2023-08-17T03:37:41;17.80;99.90
11908;DHT22;6014;47.690;9.130;2023-08-17T03:40:10;17.80;99.90
11908;DHT22;6014;47.690;9.130;2023-08-17T03:42:38;17.80;99.90
11908;DHT22;6014;47.690;9.130;2023-08-17T03:45:06;17.80;99.90
11908;DHT22;6014;47.690;9.130;2023-08-17T03:47:36;17.80;99.90
11908;DHT22;6014;47.690;9.130;2023-08-17T03:50:05;17.70;99.90
11908;DHT22;6014;47.690;9.130;2023-08-17T03:52:35;17.60;99.90
11908;DHT22;6014;47.690;9.130;2023-08-17T03:55:04;17.60;99.90
11908;DHT22;6014;47.690;9.130;2023-08-17T03:57:33;17.70;99.90
11908;DHT22;6014;47.690;9.130;2023-08-17T04:00:06;17.70;99.90
11908;DHT22;6014;47.690;9.130;2023-08-17T04:02:37;17.60;99.90
11908;DHT22;6014;47.690;9.130;2023-08-17T04:05:05;17.60;99.90
11908;DHT22;6014;47.690;9.130;2023-08-17T04:07:35;17.70;99.90
11908;DHT22;6014;47.690;9.130;2023-08-17T04:10:05;17.80;99.90
11908;DHT22;6014;47.690;9.130;2023-08-17T04:12:33;17.80;99.90
11908;DHT22;6014;47.690;9.130;2023-08-17T04:15:02;17.70;99.90
11908;DHT22;6014;47.690;9.130;2023-08-17T04:17:30;17.70;99.90
11908;DHT22;6014;47.690;9.130;2023-08-17T04:19:58;17.70;99.90
11908;DHT22;6014;47.690;9.130;2023-08-17T04:22:26;17.80;99.90
11908;DHT22;6014;47.690;9.130;2023-08-17T04:25:02;17.80;99.90
11908;DHT22;6014;47.690;9.130;2023-08-17T04:27:30;17.80;99.90
11908;DHT22;6014;47.690;9.130;2023-08-17T04:29:59;17.90;99.90
11908;DHT22;6014;47.690;9.130;2023-08-17T04:32:27;18.00;99.90
11908;DHT22;6014;47.690;9.130;2023-08-17T04:34:56;18.00;99.90
11908;DHT22;6014;47.690;9.130;2023-08-17T04:37:24;18.10;99.90
11908;DHT22;6014;47.690;9.130;2023-08-17T04:39:52;18.10;99.90
11908;DHT22;6014;47.690;9.130;2023-08-17T04:42:21;18.10;99.90
11908;DHT22;6014;47.690;9.130;2023-08-17T04:44:51;18.10;99.90
11908;DHT22;6014;47.690;9.130;2023-08-17T04:47:19;18.10;99.90
11908;DHT22;6014;47.690;9.130;2023-08-17T04:49:47;18.20;99.90
11908;DHT22;6014;47.690;9.130;2023-08-17T04:52:16;18.20;99.90
11908;DHT22;6014;47.690;9.130;2023-08-17T04:54:44;18.30;99.90
11908;DHT22;6014;47.690;9.130;2023-08-17T04:57:22;18.30;99.90
11908;DHT22;6014;47.690;9.130;2023-08-17T04:59:53;18.40;99.90
11908;DHT22;6014;47.690;9.130;2023-08-17T05:02:27;18.50;99.90
11908;DHT22;6014;47.690;9.130;2023-08-17T05:04:56;18.60;99.90
11908;DHT22;6014;47.690;9.130;2023-08-17T05:07:27;18.70;99.90
11908;DHT22;6014;47.690;9.130;2023-08-17T05:09:56;18.90;99.90
11908;DHT22;6014;47.690;9.130;2023-08-17T05:12:28;19.20;99.90
11908;DHT22;6014;47.690;9.130;2023-08-17T05:14:57;19.30;99.90
11908;DHT22;6014;47.690;9.130;2023-08-17T05:17:25;19.50;99.90
11908;DHT22;6014;47.690;9.130;2023-08-17T05:19:54;19.90;99.90
11908;DHT22;6014;47.690;9.130;2023-08-17T05:22:22;20.40;99.90
11908;DHT22;6014;47.690;9.130;2023-08-17T05:24:51;20.80;99.90
11908;DHT22;6014;47.690;9.130;2023-08-17T05:27:19;21.00;99.90
11908;DHT22;6014;47.690;9.130;2023-08-17T05:29:49;21.20;99.90
11908;DHT22;6014;47.690;9.130;2023-08-17T05:32:17;21.40;99.90
11908;DHT22;6014;47.690;9.130;2023-08-17T05:34:46;21.20;99.90
11908;DHT22;6014;47.690;9.130;2023-08-17T05:37:15;21.40;99.90
11908;DHT22;6014;47.690;9.130;2023-08-17T05:39:43;21.60;99.90
11908;DHT22;6014;47.690;9.130;2023-08-17T05:42:11;22.00;99.90
11908;DHT22;6014;47.690;9.130;2023-08-17T05:44:41;22.30;99.90
11908;DHT22;6014;47.690;9.130;2023-08-17T05:47:10;22.20;99.90
11908;DHT22;6014;47.690;9.130;2023-08-17T05:49:39;22.50;99.90
11908;DHT22;6014;47.690;9.130;2023-08-17T05:52:09;22.30;99.90
11908;DHT22;6014;47.690;9.130;2023-08-17T05:54:37;22.30;99.90
11908;DHT22;6014;47.690;9.130;2023-08-17T05:57:12;21.70;99.90
11908;DHT22;6014;47.690;9.130;2023-08-17T05:59:40;21.50;99.90
11908;DHT22;6014;47.690;9.130;2023-08-17T06:02:09;21.30;99.90
11908;DHT22;6014;47.690;9.130;2023-08-17T06:04:37;21.10;99.90
11908;DHT22;6014;47.690;9.130;2023-08-17T06:07:06;21.10;99.90
11908;DHT22;6014;47.690;9.130;2023-08-17T06:09:35;21.10;99.90
11908;DHT22;6014;47.690;9.130;2023-08-17T06:12:03;21.20;99.90
11908;DHT22;6014;47.690;9.130;2023-08-17T06:14:33;21.40;99.90
11908;DHT22;6014;47.690;9.130;2023-08-17T06:17:01;21.50;99.90
11908;DHT22;6014;47.690;9.130;2023-08-17T06:19:31;21.70;99.90
11908;DHT22;6014;47.690;9.130;2023-08-17T06:22:00;22.00;99.90
11908;DHT22;6014;47.690;9.130;2023-08-17T06:24:28;22.30;99.90
11908;DHT22;6014;47.690;9.130;2023-08-17T06:26:56;22.80;99.90
11908;DHT22;6014;47.690;9.130;2023-08-17T06:29:25;23.00;99.90
11908;DHT22;6014;47.690;9.130;2023-08-17T06:31:53;23.20;99.90
11908;DHT22;6014;47.690;9.130;2023-08-17T06:34:21;23.40;99.90
11908;DHT22;6014;47.690;9.130;2023-08-17T06:37:02;24.00;99.90
11908;DHT22;6014;47.690;9.130;2023-08-17T06:39:31;24.50;99.90
11908;DHT22;6014;47.690;9.130;2023-08-17T06:42:01;25.00;99.90
11908;DHT22;6014;47.690;9.130;2023-08-17T06:44:31;24.90;99.90
11908;DHT22;6014;47.690;9.130;2023-08-17T06:47:03;24.50;99.90
11908;DHT22;6014;47.690;9.130;2023-08-17T06:49:31;24.50;99.90
11908;DHT22;6014;47.690;9.130;2023-08-17T06:52:00;24.60;99.90
11908;DHT22;6014;47.690;9.130;2023-08-17T06:54:28;24.70;99.90
11908;DHT22;6014;47.690;9.130;2023-08-17T06:56:58;25.10;99.90
11908;DHT22;6014;47.690;9.130;2023-08-17T06:59:27;25.60;99.90
11908;DHT22;6014;47.690;9.130;2023-08-17T07:01:57;25.70;99.90
11908;DHT22;6014;47.690;9.130;2023-08-17T07:04:29;26.20;99.90
11908;DHT22;6014;47.690;9.130;2023-08-17T07:07:07;26.10;99.90
11908;DHT22;6014;47.690;9.130;2023-08-17T07:09:35;25.80;99.90
11908;DHT22;6014;47.690;9.130;2023-08-17T07:12:11;25.50;99.90
11908;DHT22;6014;47.690;9.130;2023-08-17T07:14:54;25.50;99.90
11908;DHT22;6014;47.690;9.130;2023-08-17T07:17:26;25.30;99.90
11908;DHT22;6014;47.690;9.130;2023-08-17T07:19:54;25.50;99.90
11908;DHT22;6014;47.690;9.130;2023-08-17T07:22:44;25.80;99.90
11908;DHT22;6014;47.690;9.130;2023-08-17T07:25:12;26.20;99.90
11908;DHT22;6014;47.690;9.130;2023-08-17T07:27:45;26.00;99.90
11908;DHT22;6014;47.690;9.130;2023-08-17T07:30:20;26.00;99.90
11908;DHT22;6014;47.690;9.130;2023-08-17T07:32:49;26.30;99.90
11908;DHT22;6014;47.690;9.130;2023-08-17T07:35:17;26.60;99.90
11908;DHT22;6014;47.690;9.130;2023-08-17T07:37:46;26.90;99.90
11908;DHT22;6014;47.690;9.130;2023-08-17T07:40:33;26.90;99.90
11908;DHT22;6014;47.690;9.130;2023-08-17T07:43:03;26.90;99.90
11908;DHT22;6014;47.690;9.130;2023-08-17T07:45:32;26.90;99.90
11908;DHT22;6014;47.690;9.130;2023-08-17T07:48:00;27.00;99.90
11908;DHT22;6014;47.690;9.130;2023-08-17T07:50:37;27.30;99.90
11908;DHT22;6014;47.690;9.130;2023-08-17T07:53:10;27.30;99.90
11908;DHT22;6014;47.690;9.130;2023-08-17T07:55:39;26.70;99.90
11908;DHT22;6014;47.690;9.130;2023-08-17T07:58:11;25.90;99.90
11908;DHT22;6014;47.690;9.130;2023-08-17T08:00:39;26.10;99.90
11908;DHT22;6014;47.690;9.130;2023-08-17T08:03:07;26.20;99.90
11908;DHT22;6014;47.690;9.130;2023-08-17T08:05:35;26.40;99.90
11908;DHT22;6014;47.690;9.130;2023-08-17T08:08:05;26.70;99.90
11908;DHT22;6014;47.690;9.130;2023-08-17T08:10:35;27.10;99.90
11908;DHT22;6014;47.690;9.130;2023-08-17T08:13:15;27.30;99.90
11908;DHT22;6014;47.690;9.130;2023-08-17T08:15:43;26.80;99.90
11908;DHT22;6014;47.690;9.130;2023-08-17T08:18:13;26.80;99.90
11908;DHT22;6014;47.690;9.130;2023-08-17T08:20:41;27.00;99.90
11908;DHT22;6014;47.690;9.130;2023-08-17T08:23:10;27.50;99.90
11908;DHT22;6014;47.690;9.130;2023-08-17T08:25:41;27.60;99.80
11908;DHT22;6014;47.690;9.130;2023-08-17T08:28:11;27.90;98.30
11908;DHT22;6014;47.690;9.130;2023-08-17T08:30:39;28.20;97.10
11908;DHT22;6014;47.690;9.130;2023-08-17T08:33:08;28.60;96.00
11908;DHT22;6014;47.690;9.130;2023-08-17T08:35:42;28.20;96.30
11908;DHT22;6014;47.690;9.130;2023-08-17T08:38:11;27.70;96.60
11908;DHT22;6014;47.690;9.130;2023-08-17T08:40:42;28.40;95.00
11908;DHT22;6014;47.690;9.130;2023-08-17T08:43:22;28.20;93.40
11908;DHT22;6014;47.690;9.130;2023-08-17T08:45:52;28.70;93.50
11908;DHT22;6014;47.690;9.130;2023-08-17T08:48:22;28.80;93.40
11908;DHT22;6014;47.690;9.130;2023-08-17T08:50:50;29.10;91.30
11908;DHT22;6014;47.690;9.130;2023-08-17T08:53:38;29.10;90.60
11908;DHT22;6014;47.690;9.130;2023-08-17T08:56:11;29.20;88.10
11908;DHT22;6014;47.690;9.130;2023-08-17T08:58:46;29.20;85.00
11908;DHT22;6014;47.690;9.130;2023-08-17T09:01:20;29.60;81.80
11908;DHT22;6014;47.690;9.130;2023-08-17T09:03:50;29.10;84.30
11908;DHT22;6014;47.690;9.130;2023-08-17T09:06:19;29.30;89.30
11908;DHT22;6014;47.690;9.130;2023-08-17T09:08:49;29.70;90.00
11908;DHT22;6014;47.690;9.130;2023-08-17T09:11:26;29.70;85.30
11908;DHT22;6014;47.690;9.130;2023-08-17T09:14:01;29.10;82.90
11908;DHT22;6014;47.690;9.130;2023-08-17T09:16:35;29.00;81.80
11908;DHT22;6014;47.690;9.130;2023-08-17T09:19:03;29.20;82.20
11908;DHT22;6014;47.690;9.130;2023-08-17T09:21:35;29.10;81.60
11908;DHT22;6014;47.690;9.130;2023-08-17T09:24:04;29.00;77.10
11908;DHT22;6014;47.690;9.130;2023-08-17T09:26:35;29.30;76.30
11908;DHT22;6014;47.690;9.130;2023-08-17T09:29:17;29.00;76.90
11908;DHT22;6014;47.690;9.130;2023-08-17T09:31:46;29.00;77.10
11908;DHT22;6014;47.690;9.130;2023-08-17T09:34:15;29.20;80.60
11908;DHT22;6014;47.690;9.130;2023-08-17T09:36:45;28.60;78.10
11908;DHT22;6014;47.690;9.130;2023-08-17T09:39:16;28.90;79.80
11908;DHT22;6014;47.690;9.130;2023-08-17T09:41:56;29.50;80.30
11908;DHT22;6014;47.690;9.130;2023-08-17T09:44:24;29.30;82.00
11908;DHT22;6014;47.690;9.130;2023-08-17T09:46:55;29.60;80.40
11908;DHT22;6014;47.690;9.130;2023-08-17T09:49:24;29.40;77.50
11908;DHT22;6014;47.690;9.130;2023-08-17T09:51:52;28.80;79.40
11908;DHT22;6014;47.690;9.130;2023-08-17T09:54:21;28.70;81.60
11908;DHT22;6014;47.690;9.130;2023-08-17T09:56:50;29.20;80.10
11908;DHT22;6014;47.690;9.130;2023-08-17T09:59:20;28.90;79.80
11908;DHT22;6014;47.690;9.130;2023-08-17T10:01:51;28.40;79.40
11908;DHT22;6014;47.690;9.130;2023-08-17T10:04:23;28.30;80.10
11908;DHT22;6014;47.690;9.130;2023-08-17T10:06:55;28.70;78.30
11908;DHT22;6014;47.690;9.130;2023-08-17T10:09:32;28.80;77.50
11908;DHT22;6014;47.690;9.130;2023-08-17T10:12:09;28.10;79.00
11908;DHT22;6014;47.690;9.130;2023-08-17T10:14:55;28.00;78.20
11908;DHT22;6014;47.690;9.130;2023-08-17T10:17:26;28.10;78.00
11908;DHT22;6014;47.690;9.130;2023-08-17T10:19:58;28.50;75.80
11908;DHT22;6014;47.690;9.130;2023-08-17T10:22:31;28.80;74.30
11908;DHT22;6014;47.690;9.130;2023-08-17T10:25:14;29.00;73.30
11908;DHT22;6014;47.690;9.130;2023-08-17T10:27:45;29.30;71.50
11908;DHT22;6014;47.690;9.130;2023-08-17T10:30:18;29.40;71.50
11908;DHT22;6014;47.690;9.130;2023-08-17T10:32:52;29.90;71.90
11908;DHT22;6014;47.690;9.130;2023-08-17T10:35:21;30.20;70.30
11908;DHT22;6014;47.690;9.130;2023-08-17T10:37:55;30.70;68.70
11908;DHT22;6014;47.690;9.130;2023-08-17T10:40:26;30.60;68.20
11908;DHT22;6014;47.690;9.130;2023-08-17T10:42:56;29.80;70.20
11908;DHT22;6014;47.690;9.130;2023-08-17T10:45:27;29.40;71.80
11908;DHT22;6014;47.690;9.130;2023-08-17T10:48:27;29.70;72.40
11908;DHT22;6014;47.690;9.130;2023-08-17T10:51:01;30.10;71.70
11908;DHT22;6014;47.690;9.130;2023-08-17T10:53:36;29.90;72.90
11908;DHT22;6014;47.690;9.130;2023-08-17T10:56:12;30.20;71.00
11908;DHT22;6014;47.690;9.130;2023-08-17T10:58:43;30.10;70.70
11908;DHT22;6014;47.690;9.130;2023-08-17T11:01:12;30.40;70.90
11908;DHT22;6014;47.690;9.130;2023-08-17T11:04:08;30.70;69.90
11908;DHT22;6014;47.690;9.130;2023-08-17T11:06:38;30.80;67.90
11908;DHT22;6014;47.690;9.130;2023-08-17T11:09:07;31.30;66.70
11908;DHT22;6014;47.690;9.130;2023-08-17T11:11:35;31.10;65.70
11908;DHT22;6014;47.690;9.130;2023-08-17T11:14:04;31.10;65.80
11908;DHT22;6014;47.690;9.130;2023-08-17T11:16:39;31.10;65.50
11908;DHT22;6014;47.690;9.130;2023-08-17T11:19:07;31.00;67.80
11908;DHT22;6014;47.690;9.130;2023-08-17T11:21:39;31.00;63.50
11908;DHT22;6014;47.690;9.130;2023-08-17T11:24:10;30.80;63.70
11908;DHT22;6014;47.690;9.130;2023-08-17T11:26:38;30.80;65.30
11908;DHT22;6014;47.690;9.130;2023-08-17T11:29:06;31.30;65.10
11908;DHT22;6014;47.690;9.130;2023-08-17T11:31:34;31.60;64.60
11908;DHT22;6014;47.690;9.130;2023-08-17T11:34:04;31.50;61.10
11908;DHT22;6014;47.690;9.130;2023-08-17T11:36:33;31.60;60.20
11908;DHT22;6014;47.690;9.130;2023-08-17T11:39:01;31.80;59.30
11908;DHT22;6014;47.690;9.130;2023-08-17T11:41:29;31.40;60.30
11908;DHT22;6014;47.690;9.130;2023-08-17T11:43:57;31.60;59.00
11908;DHT22;6014;47.690;9.130;2023-08-17T11:46:25;32.10;59.30
11908;DHT22;6014;47.690;9.130;2023-08-17T11:48:59;32.20;56.60
11908;DHT22;6014;47.690;9.130;2023-08-17T11:51:31;32.30;58.50
11908;DHT22;6014;47.690;9.130;2023-08-17T11:53:59;31.90;57.30
11908;DHT22;6014;47.690;9.130;2023-08-17T11:56:29;31.60;59.10
11908;DHT22;6014;47.690;9.130;2023-08-17T11:59:08;32.10;58.30
11908;DHT22;6014;47.690;9.130;2023-08-17T12:01:38;32.10;57.10
11908;DHT22;6014;47.690;9.130;2023-08-17T12:04:06;32.30;58.10
11908;DHT22;6014;47.690;9.130;2023-08-17T12:06:40;32.50;56.30
11908;DHT22;6014;47.690;9.130;2023-08-17T12:09:10;32.50;55.90
11908;DHT22;6014;47.690;9.130;2023-08-17T12:11:39;32.70;55.90
11908;DHT22;6014;47.690;9.130;2023-08-17T12:14:11;32.60;56.00
11908;DHT22;6014;47.690;9.130;2023-08-17T12:16:46;32.50;56.80
11908;DHT22;6014;47.690;9.130;2023-08-17T12:19:15;33.00;55.80
11908;DHT22;6014;47.690;9.130;2023-08-17T12:21:45;33.50;55.20
11908;DHT22;6014;47.690;9.130;2023-08-17T12:24:13;33.30;54.90
11908;DHT22;6014;47.690;9.130;2023-08-17T12:26:43;32.20;55.00
11908;DHT22;6014;47.690;9.130;2023-08-17T12:29:14;32.00;56.30
11908;DHT22;6014;47.690;9.130;2023-08-17T12:31:42;32.50;56.10
11908;DHT22;6014;47.690;9.130;2023-08-17T12:34:10;33.00;58.20
11908;DHT22;6014;47.690;9.130;2023-08-17T12:36:38;33.40;55.80
11908;DHT22;6014;47.690;9.130;2023-08-17T12:39:09;32.90;55.90
11908;DHT22;6014;47.690;9.130;2023-08-17T12:41:38;32.80;56.70
11908;DHT22;6014;47.690;9.130;2023-08-17T12:44:06;32.70;55.30
11908;DHT22;6014;47.690;9.130;2023-08-17T12:46:36;32.60;56.10
11908;DHT22;6014;47.690;9.130;2023-08-17T12:49:06;31.80;57.50
11908;DHT22;6014;47.690;9.130;2023-08-17T12:51:34;31.20;59.50
11908;DHT22;6014;47.690;9.130;2023-08-17T12:54:02;30.70;61.50
11908;DHT22;6014;47.690;9.130;2023-08-17T12:56:32;30.80;60.90
11908;DHT22;6014;47.690;9.130;2023-08-17T12:59:00;30.60;61.60
11908;DHT22;6014;47.690;9.130;2023-08-17T13:01:29;30.80;61.30
11908;DHT22;6014;47.690;9.130;2023-08-17T13:03:57;30.80;60.80
11908;DHT22;6014;47.690;9.130;2023-08-17T13:06:25;30.80;62.70
11908;DHT22;6014;47.690;9.130;2023-08-17T13:09:13;31.20;59.90
11908;DHT22;6014;47.690;9.130;2023-08-17T13:11:44;31.00;60.20
11908;DHT22;6014;47.690;9.130;2023-08-17T13:14:14;30.80;59.30
11908;DHT22;6014;47.690;9.130;2023-08-17T13:16:47;30.50;59.90
11908;DHT22;6014;47.690;9.130;2023-08-17T13:19:15;30.20;61.30
11908;DHT22;6014;47.690;9.130;2023-08-17T13:21:43;29.90;55.40
11908;DHT22;6014;47.690;9.130;2023-08-17T13:24:13;29.40;56.30
11908;DHT22;6014;47.690;9.130;2023-08-17T13:26:41;29.10;58.10
11908;DHT22;6014;47.690;9.130;2023-08-17T13:29:19;29.10;56.60
11908;DHT22;6014;47.690;9.130;2023-08-17T13:31:47;29.10;55.30
11908;DHT22;6014;47.690;9.130;2023-08-17T13:34:22;29.00;56.40
11908;DHT22;6014;47.690;9.130;2023-08-17T13:36:52;29.00;56.20
11908;DHT22;6014;47.690;9.130;2023-08-17T13:39:20;29.10;54.50
11908;DHT22;6014;47.690;9.130;2023-08-17T13:41:49;29.10;53.30
11908;DHT22;6014;47.690;9.130;2023-08-17T13:44:19;29.10;49.60
11908;DHT22;6014;47.690;9.130;2023-08-17T13:46:47;29.20;49.10
11908;DHT22;6014;47.690;9.130;2023-08-17T13:49:16;29.30;49.00
11908;DHT22;6014;47.690;9.130;2023-08-17T13:51:44;29.50;48.80
11908;DHT22;6014;47.690;9.130;2023-08-17T13:54:17;29.70;48.10
11908;DHT22;6014;47.690;9.130;2023-08-17T13:56:50;29.90;46.70
11908;DHT22;6014;47.690;9.130;2023-08-17T13:59:25;29.90;48.90
11908;DHT22;6014;47.690;9.130;2023-08-17T14:01:54;29.90;50.00
11908;DHT22;6014;47.690;9.130;2023-08-17T14:04:23;29.50;52.30
11908;DHT22;6014;47.690;9.130;2023-08-17T14:06:54;29.10;54.40
11908;DHT22;6014;47.690;9.130;2023-08-17T14:09:22;28.90;56.50
11908;DHT22;6014;47.690;9.130;2023-08-17T14:11:50;29.00;59.40
11908;DHT22;6014;47.690;9.130;2023-08-17T14:14:18;29.00;59.60
11908;DHT22;6014;47.690;9.130;2023-08-17T14:16:48;29.00;58.60
11908;DHT22;6014;47.690;9.130;2023-08-17T14:19:16;29.10;56.70
11908;DHT22;6014;47.690;9.130;2023-08-17T14:21:46;29.10;53.00
11908;DHT22;6014;47.690;9.130;2023-08-17T14:24:14;28.80;49.60
11908;DHT22;6014;47.690;9.130;2023-08-17T14:26:42;28.70;50.60
11908;DHT22;6014;47.690;9.130;2023-08-17T14:29:11;28.80;50.10
11908;DHT22;6014;47.690;9.130;2023-08-17T14:31:39;28.60;52.90
11908;DHT22;6014;47.690;9.130;2023-08-17T14:34:09;28.70;53.00
11908;DHT22;6014;47.690;9.130;2023-08-17T14:36:37;28.40;57.50
11908;DHT22;6014;47.690;9.130;2023-08-17T14:39:05;28.20;58.90
11908;DHT22;6014;47.690;9.130;2023-08-17T14:41:33;28.20;58.50
11908;DHT22;6014;47.690;9.130;2023-08-17T14:44:10;28.30;58.50
11908;DHT22;6014;47.690;9.130;2023-08-17T14:46:40;28.20;54.70
11908;DHT22;6014;47.690;9.130;2023-08-17T14:49:13;28.30;54.70
11908;DHT22;6014;47.690;9.130;2023-08-17T14:51:47;28.30;54.60
11908;DHT22;6014;47.690;9.130;2023-08-17T14:54:30;28.40;53.20
11908;DHT22;6014;47.690;9.130;2023-08-17T14:57:00;28.50;52.50
11908;DHT22;6014;47.690;9.130;2023-08-17T14:59:28;29.00;53.70
11908;DHT22;6014;47.690;9.130;2023-08-17T15:01:56;29.00;56.00
11908;DHT22;6014;47.690;9.130;2023-08-17T15:04:26;29.00;55.70
11908;DHT22;6014;47.690;9.130;2023-08-17T15:06:54;29.20;55.30
11908;DHT22;6014;47.690;9.130;2023-08-17T15:09:22;29.10;53.00
11908;DHT22;6014;47.690;9.130;2023-08-17T15:11:50;29.60;54.20
11908;DHT22;6014;47.690;9.130;2023-08-17T15:14:18;29.60;54.30
11908;DHT22;6014;47.690;9.130;2023-08-17T15:16:46;29.60;54.40
11908;DHT22;6014;47.690;9.130;2023-08-17T15:19:14;29.50;54.20
11908;DHT22;6014;47.690;9.130;2023-08-17T15:21:58;29.40;53.20
11908;DHT22;6014;47.690;9.130;2023-08-17T15:24:26;28.80;51.70
11908;DHT22;6014;47.690;9.130;2023-08-17T15:26:54;28.90;54.30
11908;DHT22;6014;47.690;9.130;2023-08-17T15:29:23;29.00;54.90
11908;DHT22;6014;47.690;9.130;2023-08-17T15:31:51;29.10;55.20
11908;DHT22;6014;47.690;9.130;2023-08-17T15:34:19;29.10;53.90
11908;DHT22;6014;47.690;9.130;2023-08-17T15:36:49;29.20;54.70
11908;DHT22;6014;47.690;9.130;2023-08-17T15:39:18;29.30;55.40
11908;DHT22;6014;47.690;9.130;2023-08-17T15:41:59;29.30;57.40
11908;DHT22;6014;47.690;9.130;2023-08-17T15:44:27;29.00;58.20
11908;DHT22;6014;47.690;9.130;2023-08-17T15:47:02;29.00;58.10
11908;DHT22;6014;47.690;9.130;2023-08-17T15:49:30;28.90;57.60
11908;DHT22;6014;47.690;9.130;2023-08-17T15:51:58;28.50;56.40
11908;DHT22;6014;47.690;9.130;2023-08-17T15:54:32;28.30;58.10
11908;DHT22;6014;47.690;9.130;2023-08-17T15:57:06;28.10;59.50
11908;DHT22;6014;47.690;9.130;2023-08-17T15:59:34;28.00;60.90
11908;DHT22;6014;47.690;9.130;2023-08-17T16:02:07;27.90;61.70
11908;DHT22;6014;47.690;9.130;2023-08-17T16:04:35;27.80;62.50